LUK7013 UWKD-UUWW
Flight info
| Callsign | LUK7013 |
|---|---|
| Flight time | 1h 18m |
| Altitude | 34000 |
| Route | UWKD/11 K0848F340 APTA1G APTAR L158 DIMGI DIMG3A UUWW/24 |
| Aircraft | CRJ7/M-V/N |
Departure
| Time | 2026-04-27 12:18 |
|---|---|
| Airport | Kazan International Airport (UWKD) |
Arrival
| Time | 2026-04-27 13:37 |
|---|---|
| Airport | Vnukovo International Airport (UUWW) |
| Time | Latitude | Longitude | Altitude | Speed | Heading |
|---|---|---|---|---|---|
| 2026-04-27 11:43 | 55.60729 | 49.29537 | 414 ft | 0 kts | 35° |
| 2026-04-27 11:44 | 55.60729 | 49.29536 | 414 ft | 0 kts | 35° |
| 2026-04-27 11:48 | 55.60728 | 49.29536 | 414 ft | 0 kts | 35° |
| 2026-04-27 11:50 | 55.60728 | 49.29535 | 414 ft | 0 kts | 35° |
| 2026-04-27 11:56 | 55.60727 | 49.29535 | 414 ft | 0 kts | 35° |
| 2026-04-27 11:57 | 55.60727 | 49.29534 | 414 ft | 0 kts | 35° |
| 2026-04-27 12:03 | 55.60727 | 49.29533 | 414 ft | 0 kts | 35° |
| 2026-04-27 12:04 | 55.60726 | 49.29533 | 414 ft | 0 kts | 35° |
| 2026-04-27 12:09 | 55.60746 | 49.29556 | 413 ft | 6 kts | 30° |
| 2026-04-27 12:09 | 55.60771 | 49.29562 | 412 ft | 3 kts | 345° |
| 2026-04-27 12:09 | 55.60785 | 49.29547 | 414 ft | 4 kts | 317° |
| 2026-04-27 12:10 | 55.60816 | 49.29461 | 414 ft | 8 kts | 281° |
| 2026-04-27 12:10 | 55.60812 | 49.29431 | 414 ft | 5 kts | 240° |
| 2026-04-27 12:10 | 55.60780 | 49.29385 | 414 ft | 10 kts | 215° |
| 2026-04-27 12:10 | 55.60697 | 49.29285 | 414 ft | 17 kts | 214° |
| 2026-04-27 12:11 | 55.60600 | 49.29158 | 414 ft | 17 kts | 229° |
| 2026-04-27 12:11 | 55.60577 | 49.28994 | 414 ft | 13 kts | 277° |
| 2026-04-27 12:11 | 55.60585 | 49.28829 | 414 ft | 16 kts | 274° |
| 2026-04-27 12:11 | 55.60602 | 49.28603 | 414 ft | 20 kts | 289° |
| 2026-04-27 12:12 | 55.60674 | 49.28404 | 409 ft | 19 kts | 304° |
| 2026-04-27 12:12 | 55.60750 | 49.28208 | 411 ft | 19 kts | 304° |
| 2026-04-27 12:12 | 55.60827 | 49.28009 | 414 ft | 20 kts | 304° |
| 2026-04-27 12:12 | 55.60905 | 49.27808 | 414 ft | 20 kts | 304° |
| 2026-04-27 12:13 | 55.60984 | 49.27604 | 412 ft | 20 kts | 304° |
| 2026-04-27 12:13 | 55.61063 | 49.27399 | 414 ft | 20 kts | 304° |
| 2026-04-27 12:13 | 55.61143 | 49.27194 | 412 ft | 20 kts | 304° |
| 2026-04-27 12:13 | 55.61223 | 49.26988 | 414 ft | 20 kts | 304° |
| 2026-04-27 12:14 | 55.61303 | 49.26784 | 412 ft | 20 kts | 304° |
| 2026-04-27 12:14 | 55.61377 | 49.26590 | 414 ft | 20 kts | 304° |
| 2026-04-27 12:14 | 55.61456 | 49.26386 | 409 ft | 20 kts | 304° |
| 2026-04-27 12:14 | 55.61535 | 49.26186 | 412 ft | 20 kts | 305° |
| 2026-04-27 12:15 | 55.61613 | 49.25989 | 410 ft | 19 kts | 304° |
| 2026-04-27 12:15 | 55.61689 | 49.25792 | 412 ft | 19 kts | 304° |
| 2026-04-27 12:15 | 55.61764 | 49.25597 | 414 ft | 19 kts | 304° |
| 2026-04-27 12:15 | 55.61838 | 49.25404 | 414 ft | 19 kts | 303° |
| 2026-04-27 12:16 | 55.61862 | 49.25296 | 414 ft | 0 kts | 230° |
| 2026-04-27 12:16 | 55.61847 | 49.25278 | 410 ft | 8 kts | 213° |
| 2026-04-27 12:16 | 55.61768 | 49.25189 | 407 ft | 17 kts | 213° |
| 2026-04-27 12:16 | 55.61689 | 49.25153 | 408 ft | 4 kts | 152° |
| 2026-04-27 12:17 | 55.61661 | 49.25203 | 406 ft | 8 kts | 125° |
| 2026-04-27 12:17 | 55.61614 | 49.25332 | 408 ft | 17 kts | 124° |
| 2026-04-27 12:17 | 55.61531 | 49.25538 | 411 ft | 27 kts | 126° |
| 2026-04-27 12:17 | 55.61285 | 49.26161 | 408 ft | 98 kts | 124° |
| 2026-04-27 12:18 | 55.60777 | 49.27450 | 434 ft | 153 kts | 128° |
| 2026-04-27 12:18 | 55.60173 | 49.29077 | 1076 ft | 157 kts | 129° |
| 2026-04-27 12:18 | 55.59585 | 49.30768 | 1896 ft | 158 kts | 131° |
| 2026-04-27 12:18 | 55.59038 | 49.32308 | 2677 ft | 162 kts | 134° |
| 2026-04-27 12:19 | 55.58381 | 49.34059 | 3249 ft | 172 kts | 137° |
| 2026-04-27 12:19 | 55.57922 | 49.35179 | 3820 ft | 170 kts | 138° |
| 2026-04-27 12:19 | 55.56945 | 49.37489 | 4712 ft | 186 kts | 138° |
| 2026-04-27 12:20 | 55.56162 | 49.39332 | 5544 ft | 191 kts | 137° |
| 2026-04-27 12:20 | 55.55330 | 49.41295 | 5990 ft | 209 kts | 142° |
| 2026-04-27 12:20 | 55.54047 | 49.42348 | 6299 ft | 211 kts | 184° |
| 2026-04-27 12:20 | 55.53093 | 49.41824 | 6598 ft | 222 kts | 212° |
| 2026-04-27 12:21 | 55.52071 | 49.39625 | 7157 ft | 239 kts | 228° |
| 2026-04-27 12:21 | 55.50896 | 49.37629 | 7905 ft | 233 kts | 208° |
| 2026-04-27 12:21 | 55.49464 | 49.36306 | 8716 ft | 232 kts | 200° |
| 2026-04-27 12:21 | 55.47979 | 49.35207 | 9536 ft | 232 kts | 197° |
| 2026-04-27 12:22 | 55.46485 | 49.34119 | 10285 ft | 233 kts | 198° |
| 2026-04-27 12:22 | 55.45001 | 49.32980 | 11066 ft | 233 kts | 198° |
| 2026-04-27 12:22 | 55.43518 | 49.31809 | 11807 ft | 235 kts | 200° |
| 2026-04-27 12:22 | 55.42294 | 49.29751 | 12471 ft | 266 kts | 232° |
| 2026-04-27 12:23 | 55.41617 | 49.26596 | 12769 ft | 291 kts | 238° |
| 2026-04-27 12:23 | 55.40943 | 49.23101 | 12957 ft | 312 kts | 240° |
| 2026-04-27 12:23 | 55.40470 | 49.19206 | 13231 ft | 348 kts | 258° |
| 2026-04-27 12:23 | 55.40806 | 49.14838 | 13782 ft | 368 kts | 269° |
| 2026-04-27 12:24 | 55.41323 | 49.10406 | 14336 ft | 371 kts | 269° |
| 2026-04-27 12:24 | 55.41800 | 49.05945 | 14897 ft | 371 kts | 267° |
| 2026-04-27 12:24 | 55.42180 | 49.01452 | 15435 ft | 371 kts | 264° |
| 2026-04-27 12:24 | 55.42482 | 48.96940 | 16010 ft | 372 kts | 263° |
| 2026-04-27 12:25 | 55.42754 | 48.92401 | 16534 ft | 375 kts | 263° |
| 2026-04-27 12:25 | 55.43053 | 48.87819 | 17058 ft | 378 kts | 263° |
| 2026-04-27 12:25 | 55.43339 | 48.83213 | 17529 ft | 380 kts | 263° |
| 2026-04-27 12:25 | 55.43639 | 48.78566 | 18017 ft | 383 kts | 263° |
| 2026-04-27 12:26 | 55.43945 | 48.73898 | 18482 ft | 384 kts | 263° |
| 2026-04-27 12:26 | 55.44249 | 48.69216 | 18935 ft | 385 kts | 263° |
| 2026-04-27 12:26 | 55.44551 | 48.64522 | 19365 ft | 386 kts | 263° |
| 2026-04-27 12:26 | 55.44855 | 48.59813 | 19784 ft | 387 kts | 262° |
| 2026-04-27 12:27 | 55.45164 | 48.55084 | 20205 ft | 390 kts | 263° |
| 2026-04-27 12:27 | 55.45670 | 48.50305 | 20676 ft | 404 kts | 270° |
| 2026-04-27 12:27 | 55.46475 | 48.45504 | 21122 ft | 412 kts | 274° |
| 2026-04-27 12:27 | 55.47386 | 48.40695 | 21565 ft | 416 kts | 275° |
| 2026-04-27 12:28 | 55.48319 | 48.35853 | 21991 ft | 417 kts | 275° |
| 2026-04-27 12:28 | 55.49201 | 48.30988 | 22395 ft | 417 kts | 273° |
| 2026-04-27 12:28 | 55.50040 | 48.26085 | 22800 ft | 418 kts | 272° |
| 2026-04-27 12:28 | 55.50880 | 48.21160 | 23168 ft | 421 kts | 273° |
| 2026-04-27 12:29 | 55.51729 | 48.16205 | 23470 ft | 423 kts | 273° |
| 2026-04-27 12:29 | 55.52582 | 48.11225 | 23779 ft | 425 kts | 273° |
| 2026-04-27 12:29 | 55.53437 | 48.06219 | 24090 ft | 426 kts | 273° |
| 2026-04-27 12:29 | 55.54292 | 48.01198 | 24400 ft | 428 kts | 273° |
| 2026-04-27 12:30 | 55.55152 | 47.96149 | 24698 ft | 430 kts | 274° |
| 2026-04-27 12:30 | 55.56011 | 47.91078 | 24992 ft | 432 kts | 274° |
| 2026-04-27 12:30 | 55.56872 | 47.85989 | 25269 ft | 434 kts | 274° |
| 2026-04-27 12:30 | 55.57736 | 47.80870 | 25548 ft | 435 kts | 274° |
| 2026-04-27 12:31 | 55.58588 | 47.75804 | 25822 ft | 437 kts | 274° |
| 2026-04-27 12:31 | 55.59451 | 47.70651 | 26098 ft | 438 kts | 274° |
| 2026-04-27 12:31 | 55.60317 | 47.65467 | 26351 ft | 440 kts | 274° |
| 2026-04-27 12:31 | 55.61183 | 47.60271 | 26620 ft | 442 kts | 275° |
| 2026-04-27 12:32 | 55.62052 | 47.55047 | 26874 ft | 443 kts | 275° |
| 2026-04-27 12:32 | 55.62921 | 47.49799 | 27100 ft | 445 kts | 275° |
| 2026-04-27 12:32 | 55.63789 | 47.44540 | 27348 ft | 446 kts | 275° |
| 2026-04-27 12:32 | 55.64659 | 47.39256 | 27575 ft | 448 kts | 276° |
| 2026-04-27 12:33 | 55.65528 | 47.33950 | 27793 ft | 449 kts | 276° |
| 2026-04-27 12:33 | 55.66398 | 47.28638 | 28125 ft | 448 kts | 276° |
| 2026-04-27 12:33 | 55.67262 | 47.23340 | 28428 ft | 448 kts | 276° |
| 2026-04-27 12:33 | 55.68125 | 47.18041 | 28741 ft | 447 kts | 276° |
| 2026-04-27 12:34 | 55.68984 | 47.12755 | 29034 ft | 447 kts | 276° |
| 2026-04-27 12:34 | 55.69838 | 47.07461 | 29336 ft | 446 kts | 276° |
| 2026-04-27 12:34 | 55.70692 | 47.02175 | 29611 ft | 445 kts | 276° |
| 2026-04-27 12:34 | 55.71540 | 46.96893 | 29832 ft | 445 kts | 277° |
| 2026-04-27 12:35 | 55.72388 | 46.91610 | 30071 ft | 445 kts | 277° |
| 2026-04-27 12:35 | 55.73229 | 46.86331 | 30308 ft | 445 kts | 277° |
| 2026-04-27 12:35 | 55.74075 | 46.81048 | 30520 ft | 445 kts | 277° |
| 2026-04-27 12:35 | 55.74914 | 46.75776 | 30762 ft | 444 kts | 277° |
| 2026-04-27 12:36 | 55.75750 | 46.70500 | 30999 ft | 444 kts | 278° |
| 2026-04-27 12:36 | 55.76583 | 46.65220 | 31218 ft | 444 kts | 278° |
| 2026-04-27 12:36 | 55.77414 | 46.59941 | 31457 ft | 443 kts | 278° |
| 2026-04-27 12:36 | 55.78242 | 46.54669 | 31683 ft | 443 kts | 278° |
| 2026-04-27 12:37 | 55.79029 | 46.49390 | 31898 ft | 440 kts | 275° |
| 2026-04-27 12:37 | 55.79512 | 46.44062 | 32115 ft | 435 kts | 270° |
| 2026-04-27 12:37 | 55.79793 | 46.38728 | 32324 ft | 432 kts | 267° |
| 2026-04-27 12:37 | 55.79938 | 46.33404 | 32530 ft | 431 kts | 265° |
| 2026-04-27 12:38 | 55.80057 | 46.28090 | 32744 ft | 431 kts | 266° |
| 2026-04-27 12:38 | 55.80182 | 46.22769 | 32953 ft | 431 kts | 266° |
| 2026-04-27 12:38 | 55.80341 | 46.17447 | 33168 ft | 431 kts | 267° |
| 2026-04-27 12:38 | 55.80503 | 46.12193 | 33316 ft | 432 kts | 267° |
| 2026-04-27 12:39 | 55.80669 | 46.06839 | 33400 ft | 435 kts | 267° |
| 2026-04-27 12:39 | 55.80999 | 45.96084 | 33444 ft | 434 kts | 267° |
| 2026-04-27 12:40 | 55.81313 | 45.85420 | 33457 ft | 430 kts | 267° |
| 2026-04-27 12:40 | 55.81613 | 45.74794 | 33452 ft | 430 kts | 267° |
| 2026-04-27 12:41 | 55.81908 | 45.64170 | 33448 ft | 430 kts | 267° |
| 2026-04-27 12:41 | 55.82193 | 45.53558 | 33446 ft | 430 kts | 267° |
| 2026-04-27 12:42 | 55.82468 | 45.42943 | 33444 ft | 430 kts | 267° |
| 2026-04-27 12:42 | 55.82734 | 45.32322 | 33441 ft | 430 kts | 267° |
| 2026-04-27 12:43 | 55.82993 | 45.21691 | 33449 ft | 430 kts | 267° |
| 2026-04-27 12:43 | 55.83245 | 45.11047 | 33440 ft | 431 kts | 267° |
| 2026-04-27 12:44 | 55.83482 | 45.00385 | 33429 ft | 431 kts | 267° |
| 2026-04-27 12:44 | 55.83714 | 44.89723 | 33435 ft | 432 kts | 268° |
| 2026-04-27 12:45 | 55.83952 | 44.79046 | 33421 ft | 432 kts | 267° |
| 2026-04-27 12:45 | 55.84167 | 44.68359 | 33415 ft | 432 kts | 267° |
| 2026-04-27 12:46 | 55.84379 | 44.57670 | 33412 ft | 432 kts | 268° |
| 2026-04-27 12:46 | 55.84581 | 44.47051 | 33413 ft | 433 kts | 268° |
| 2026-04-27 12:47 | 55.84773 | 44.36346 | 33406 ft | 433 kts | 268° |
| 2026-04-27 12:47 | 55.84958 | 44.25642 | 33397 ft | 433 kts | 268° |
| 2026-04-27 12:48 | 55.85132 | 44.14935 | 33417 ft | 433 kts | 268° |
| 2026-04-27 12:48 | 55.85299 | 44.04202 | 33396 ft | 434 kts | 268° |
| 2026-04-27 12:49 | 55.85456 | 43.93457 | 33388 ft | 434 kts | 268° |
| 2026-04-27 12:49 | 55.85603 | 43.82702 | 33393 ft | 435 kts | 268° |
| 2026-04-27 12:50 | 55.85741 | 43.71944 | 33384 ft | 435 kts | 268° |
| 2026-04-27 12:50 | 55.85872 | 43.61180 | 33373 ft | 435 kts | 268° |
| 2026-04-27 12:51 | 55.85987 | 43.50418 | 33365 ft | 435 kts | 267° |
| 2026-04-27 12:51 | 55.86107 | 43.39725 | 33367 ft | 435 kts | 268° |
| 2026-04-27 12:52 | 55.86215 | 43.28970 | 33362 ft | 435 kts | 268° |
| 2026-04-27 12:52 | 55.86325 | 43.18213 | 33354 ft | 435 kts | 268° |
| 2026-04-27 12:53 | 55.86501 | 43.02094 | 33350 ft | 434 kts | 268° |
| 2026-04-27 12:53 | 55.86596 | 42.91361 | 33343 ft | 433 kts | 267° |
| 2026-04-27 12:54 | 55.86624 | 42.80641 | 33341 ft | 432 kts | 267° |
| 2026-04-27 12:54 | 55.86644 | 42.69942 | 33346 ft | 432 kts | 268° |
| 2026-04-27 12:55 | 55.86741 | 42.59241 | 33339 ft | 432 kts | 268° |
| 2026-04-27 12:55 | 55.86792 | 42.48544 | 33330 ft | 432 kts | 267° |
| 2026-04-27 12:56 | 55.86808 | 42.37855 | 33329 ft | 432 kts | 267° |
| 2026-04-27 12:56 | 55.86804 | 42.27174 | 33308 ft | 431 kts | 267° |
| 2026-04-27 12:57 | 55.86825 | 42.16503 | 33315 ft | 431 kts | 268° |
| 2026-04-27 12:57 | 55.86835 | 42.05838 | 33318 ft | 430 kts | 266° |
| 2026-04-27 12:58 | 55.86822 | 41.95188 | 33319 ft | 430 kts | 266° |
| 2026-04-27 12:58 | 55.86777 | 41.84540 | 33306 ft | 430 kts | 266° |
| 2026-04-27 12:59 | 55.86665 | 41.73910 | 33305 ft | 429 kts | 266° |
| 2026-04-27 12:59 | 55.86380 | 41.63373 | 33306 ft | 429 kts | 264° |
| 2026-04-27 13:00 | 55.85984 | 41.52802 | 33299 ft | 428 kts | 263° |
| 2026-04-27 13:00 | 55.85656 | 41.42224 | 33287 ft | 427 kts | 264° |
| 2026-04-27 13:01 | 55.85347 | 41.31670 | 33292 ft | 427 kts | 265° |
| 2026-04-27 13:01 | 55.85043 | 41.21046 | 33294 ft | 427 kts | 264° |
| 2026-04-27 13:02 | 55.84666 | 41.10589 | 33281 ft | 426 kts | 263° |
| 2026-04-27 13:02 | 55.84265 | 41.00079 | 33288 ft | 426 kts | 264° |
| 2026-04-27 13:03 | 55.83897 | 40.89566 | 33291 ft | 426 kts | 264° |
| 2026-04-27 13:03 | 55.83532 | 40.79062 | 33286 ft | 425 kts | 265° |
| 2026-04-27 13:04 | 55.83170 | 40.68574 | 33277 ft | 424 kts | 264° |
| 2026-04-27 13:04 | 55.82769 | 40.58106 | 33264 ft | 424 kts | 264° |
| 2026-04-27 13:05 | 55.82348 | 40.47653 | 33279 ft | 424 kts | 264° |
| 2026-04-27 13:05 | 55.81887 | 40.37199 | 33284 ft | 424 kts | 263° |
| 2026-04-27 13:06 | 55.81434 | 40.26746 | 33275 ft | 424 kts | 264° |
| 2026-04-27 13:06 | 55.81015 | 40.16325 | 32623 ft | 421 kts | 264° |
| 2026-04-27 13:07 | 55.80797 | 40.11130 | 32081 ft | 422 kts | 264° |
| 2026-04-27 13:07 | 55.80570 | 40.05942 | 31582 ft | 421 kts | 264° |
| 2026-04-27 13:07 | 55.80352 | 40.00756 | 31088 ft | 420 kts | 264° |
| 2026-04-27 13:07 | 55.80138 | 39.95583 | 30529 ft | 420 kts | 264° |
| 2026-04-27 13:08 | 55.79903 | 39.90428 | 30149 ft | 417 kts | 264° |
| 2026-04-27 13:08 | 55.79647 | 39.85322 | 29768 ft | 413 kts | 264° |
| 2026-04-27 13:08 | 55.79389 | 39.80261 | 29417 ft | 410 kts | 264° |
| 2026-04-27 13:08 | 55.79096 | 39.75253 | 29022 ft | 405 kts | 263° |
| 2026-04-27 13:09 | 55.78883 | 39.71978 | 28689 ft | 402 kts | 263° |
| 2026-04-27 13:09 | 55.78552 | 39.67070 | 28204 ft | 398 kts | 263° |
| 2026-04-27 13:09 | 55.78209 | 39.62220 | 27734 ft | 394 kts | 263° |
| 2026-04-27 13:09 | 55.77846 | 39.57425 | 27311 ft | 389 kts | 263° |
| 2026-04-27 13:10 | 55.77509 | 39.52682 | 26878 ft | 386 kts | 264° |
| 2026-04-27 13:10 | 55.77097 | 39.46462 | 26332 ft | 380 kts | 264° |
| 2026-04-27 13:10 | 55.76890 | 39.43319 | 26049 ft | 378 kts | 264° |
| 2026-04-27 13:10 | 55.76571 | 39.38703 | 25675 ft | 375 kts | 264° |
| 2026-04-27 13:11 | 55.76240 | 39.34130 | 25284 ft | 372 kts | 264° |
| 2026-04-27 13:11 | 55.75920 | 39.29593 | 24935 ft | 369 kts | 265° |
| 2026-04-27 13:11 | 55.75602 | 39.25092 | 24585 ft | 366 kts | 265° |
| 2026-04-27 13:11 | 55.75286 | 39.20618 | 24285 ft | 364 kts | 265° |
| 2026-04-27 13:12 | 55.74973 | 39.16235 | 24011 ft | 362 kts | 265° |
| 2026-04-27 13:12 | 55.74658 | 39.11824 | 23733 ft | 360 kts | 265° |
| 2026-04-27 13:12 | 55.74345 | 39.07435 | 23454 ft | 357 kts | 265° |
| 2026-04-27 13:12 | 55.74029 | 39.03069 | 23183 ft | 356 kts | 265° |
| 2026-04-27 13:13 | 55.73712 | 38.98731 | 22921 ft | 354 kts | 265° |
| 2026-04-27 13:13 | 55.73394 | 38.94416 | 22629 ft | 352 kts | 265° |
| 2026-04-27 13:13 | 55.73084 | 38.90126 | 22326 ft | 350 kts | 266° |
| 2026-04-27 13:13 | 55.72778 | 38.85854 | 22066 ft | 348 kts | 265° |
| 2026-04-27 13:14 | 55.72461 | 38.81602 | 21785 ft | 347 kts | 265° |
| 2026-04-27 13:14 | 55.72133 | 38.77372 | 21519 ft | 345 kts | 265° |
| 2026-04-27 13:14 | 55.71799 | 38.73160 | 21260 ft | 344 kts | 265° |
| 2026-04-27 13:14 | 55.71465 | 38.68966 | 20999 ft | 342 kts | 265° |
| 2026-04-27 13:15 | 55.71143 | 38.64793 | 20736 ft | 341 kts | 265° |
| 2026-04-27 13:15 | 55.70830 | 38.60633 | 20494 ft | 339 kts | 265° |
| 2026-04-27 13:15 | 55.70522 | 38.56494 | 20259 ft | 338 kts | 266° |
| 2026-04-27 13:15 | 55.70212 | 38.52369 | 20037 ft | 337 kts | 265° |
| 2026-04-27 13:16 | 55.69900 | 38.48259 | 19823 ft | 336 kts | 265° |
| 2026-04-27 13:16 | 55.69585 | 38.44164 | 19624 ft | 335 kts | 265° |
| 2026-04-27 13:16 | 55.69273 | 38.40090 | 19360 ft | 333 kts | 265° |
| 2026-04-27 13:16 | 55.68963 | 38.36033 | 19100 ft | 331 kts | 265° |
| 2026-04-27 13:17 | 55.68647 | 38.31994 | 18831 ft | 330 kts | 265° |
| 2026-04-27 13:17 | 55.68332 | 38.27976 | 18575 ft | 329 kts | 265° |
| 2026-04-27 13:17 | 55.68020 | 38.23972 | 18355 ft | 326 kts | 265° |
| 2026-04-27 13:17 | 55.67710 | 38.20043 | 18352 ft | 318 kts | 265° |
| 2026-04-27 13:18 | 55.67403 | 38.16217 | 18338 ft | 310 kts | 265° |
| 2026-04-27 13:18 | 55.67098 | 38.12477 | 18322 ft | 304 kts | 265° |
| 2026-04-27 13:18 | 55.66797 | 38.08786 | 18209 ft | 302 kts | 265° |
| 2026-04-27 13:18 | 55.66498 | 38.05109 | 18064 ft | 301 kts | 266° |
| 2026-04-27 13:19 | 55.66200 | 38.01449 | 17918 ft | 300 kts | 266° |
| 2026-04-27 13:19 | 55.65901 | 37.97800 | 17770 ft | 299 kts | 266° |
| 2026-04-27 13:19 | 55.65606 | 37.94214 | 17624 ft | 298 kts | 266° |
| 2026-04-27 13:19 | 55.65305 | 37.90597 | 17469 ft | 296 kts | 266° |
| 2026-04-27 13:20 | 55.64916 | 37.87011 | 17268 ft | 300 kts | 255° |
| 2026-04-27 13:20 | 55.64058 | 37.83625 | 17115 ft | 303 kts | 248° |
| 2026-04-27 13:20 | 55.63020 | 37.80380 | 16965 ft | 303 kts | 245° |
| 2026-04-27 13:20 | 55.61925 | 37.77195 | 16830 ft | 302 kts | 244° |
| 2026-04-27 13:21 | 55.60826 | 37.74029 | 16692 ft | 301 kts | 244° |
| 2026-04-27 13:21 | 55.59744 | 37.70865 | 16544 ft | 300 kts | 245° |
| 2026-04-27 13:21 | 55.58689 | 37.67690 | 16414 ft | 299 kts | 245° |
| 2026-04-27 13:21 | 55.57644 | 37.64518 | 16286 ft | 298 kts | 246° |
| 2026-04-27 13:22 | 55.56604 | 37.61365 | 16173 ft | 297 kts | 245° |
| 2026-04-27 13:22 | 55.55233 | 37.58583 | 16016 ft | 311 kts | 220° |
| 2026-04-27 13:22 | 55.53260 | 37.56890 | 15884 ft | 320 kts | 206° |
| 2026-04-27 13:22 | 55.51087 | 37.55940 | 15521 ft | 324 kts | 195° |
| 2026-04-27 13:23 | 55.48855 | 37.55424 | 14956 ft | 323 kts | 192° |
| 2026-04-27 13:23 | 55.46617 | 37.55025 | 14520 ft | 322 kts | 192° |
| 2026-04-27 13:23 | 55.44390 | 37.54682 | 14310 ft | 321 kts | 192° |
| 2026-04-27 13:23 | 55.42175 | 37.54297 | 14158 ft | 319 kts | 193° |
| 2026-04-27 13:24 | 55.39978 | 37.53832 | 13997 ft | 317 kts | 194° |
| 2026-04-27 13:24 | 55.37803 | 37.53279 | 13829 ft | 313 kts | 200° |
| 2026-04-27 13:24 | 55.35953 | 37.51619 | 13650 ft | 291 kts | 230° |
| 2026-04-27 13:24 | 55.34700 | 37.48959 | 13080 ft | 275 kts | 251° |
| 2026-04-27 13:25 | 55.34417 | 37.45891 | 12811 ft | 245 kts | 284° |
| 2026-04-27 13:25 | 55.35233 | 37.43445 | 12532 ft | 233 kts | 320° |
| 2026-04-27 13:25 | 55.36714 | 37.42348 | 12212 ft | 232 kts | 339° |
| 2026-04-27 13:25 | 55.38287 | 37.41684 | 11736 ft | 232 kts | 340° |
| 2026-04-27 13:26 | 55.39862 | 37.41162 | 11334 ft | 231 kts | 342° |
| 2026-04-27 13:26 | 55.41495 | 37.41266 | 10845 ft | 243 kts | 6° |
| 2026-04-27 13:26 | 55.43031 | 37.42171 | 10611 ft | 223 kts | 9° |
| 2026-04-27 13:26 | 55.44446 | 37.43066 | 10311 ft | 209 kts | 8° |
| 2026-04-27 13:27 | 55.45799 | 37.43856 | 9901 ft | 202 kts | 5° |
| 2026-04-27 13:27 | 55.47118 | 37.44537 | 9446 ft | 199 kts | 3° |
| 2026-04-27 13:27 | 55.48442 | 37.45173 | 8946 ft | 196 kts | 2° |
| 2026-04-27 13:27 | 55.49727 | 37.45787 | 8521 ft | 183 kts | 2° |
| 2026-04-27 13:28 | 55.50902 | 37.46371 | 8045 ft | 170 kts | 1° |
| 2026-04-27 13:28 | 55.52015 | 37.46914 | 7522 ft | 162 kts | 0° |
| 2026-04-27 13:28 | 55.53090 | 37.47424 | 6983 ft | 158 kts | 359° |
| 2026-04-27 13:28 | 55.54141 | 37.47930 | 6446 ft | 154 kts | 359° |
| 2026-04-27 13:29 | 55.55166 | 37.48441 | 5913 ft | 151 kts | 359° |
| 2026-04-27 13:29 | 55.56171 | 37.48929 | 5418 ft | 145 kts | 359° |
| 2026-04-27 13:29 | 55.57056 | 37.49400 | 5141 ft | 127 kts | 357° |
| 2026-04-27 13:29 | 55.57980 | 37.49846 | 4258 ft | 147 kts | 355° |
| 2026-04-27 13:30 | 55.59012 | 37.50238 | 3391 ft | 150 kts | 347° |
| 2026-04-27 13:30 | 55.59956 | 37.49780 | 2601 ft | 139 kts | 324° |
| 2026-04-27 13:30 | 55.60825 | 37.49235 | 2266 ft | 124 kts | 324° |
| 2026-04-27 13:30 | 55.61594 | 37.48748 | 2127 ft | 111 kts | 324° |
| 2026-04-27 13:31 | 55.62280 | 37.48322 | 1968 ft | 97 kts | 321° |
| 2026-04-27 13:31 | 55.62937 | 37.47863 | 1678 ft | 105 kts | 320° |
| 2026-04-27 13:31 | 55.63341 | 37.47044 | 1662 ft | 86 kts | 268° |
| 2026-04-27 13:31 | 55.63211 | 37.46187 | 1808 ft | 63 kts | 264° |
| 2026-04-27 13:32 | 55.63154 | 37.45339 | 1635 ft | 73 kts | 265° |
| 2026-04-27 13:32 | 55.62995 | 37.44476 | 1661 ft | 75 kts | 258° |
| 2026-04-27 13:32 | 55.62802 | 37.43662 | 1765 ft | 69 kts | 260° |
| 2026-04-27 13:32 | 55.62677 | 37.42881 | 1740 ft | 66 kts | 258° |
| 2026-04-27 13:33 | 55.62505 | 37.42062 | 1537 ft | 76 kts | 253° |
| 2026-04-27 13:33 | 55.62313 | 37.41193 | 1511 ft | 76 kts | 253° |
| 2026-04-27 13:33 | 55.62134 | 37.40350 | 1564 ft | 71 kts | 256° |
| 2026-04-27 13:33 | 55.61976 | 37.39523 | 1604 ft | 71 kts | 256° |
| 2026-04-27 13:34 | 55.61813 | 37.38700 | 1641 ft | 71 kts | 255° |
| 2026-04-27 13:34 | 55.61632 | 37.37888 | 1608 ft | 71 kts | 256° |
| 2026-04-27 13:34 | 55.61457 | 37.37084 | 1589 ft | 70 kts | 256° |
| 2026-04-27 13:34 | 55.61283 | 37.36259 | 1532 ft | 76 kts | 256° |
| 2026-04-27 13:35 | 55.61121 | 37.35339 | 1551 ft | 83 kts | 258° |
| 2026-04-27 13:35 | 55.60943 | 37.34369 | 1513 ft | 87 kts | 257° |
| 2026-04-27 13:35 | 55.60734 | 37.33257 | 1300 ft | 103 kts | 252° |
| 2026-04-27 13:35 | 55.60487 | 37.32035 | 1206 ft | 103 kts | 247° |
| 2026-04-27 13:36 | 55.60216 | 37.30837 | 936 ft | 108 kts | 249° |
| 2026-04-27 13:36 | 55.59925 | 37.29569 | 774 ft | 116 kts | 249° |
| 2026-04-27 13:36 | 55.59629 | 37.28255 | 682 ft | 107 kts | 249° |
| 2026-04-27 13:36 | 55.59428 | 37.27350 | 673 ft | 54 kts | 248° |
| 2026-04-27 13:37 | 55.59312 | 37.26825 | 667 ft | 33 kts | 249° |
| 2026-04-27 13:37 | 55.59243 | 37.26517 | 667 ft | 24 kts | 248° |
| 2026-04-27 13:37 | 55.59191 | 37.26287 | 667 ft | 13 kts | 251° |
| 2026-04-27 13:37 | 55.59195 | 37.26208 | 667 ft | 2 kts | 314° |
| 2026-04-27 13:38 | 55.59214 | 37.26193 | 667 ft | 7 kts | 348° |
| 2026-04-27 13:38 | 55.59275 | 37.26233 | 667 ft | 15 kts | 26° |
| 2026-04-27 13:38 | 55.59360 | 37.26306 | 667 ft | 13 kts | 25° |
| 2026-04-27 13:38 | 55.59433 | 37.26373 | 667 ft | 11 kts | 41° |
| 2026-04-27 13:39 | 55.59464 | 37.26482 | 667 ft | 12 kts | 72° |
| 2026-04-27 13:39 | 55.59500 | 37.26656 | 667 ft | 19 kts | 69° |
| 2026-04-27 13:39 | 55.59534 | 37.26895 | 667 ft | 19 kts | 97° |
| 2026-04-27 13:39 | 55.59551 | 37.27092 | 667 ft | 16 kts | 69° |
| 2026-04-27 13:40 | 55.59602 | 37.27316 | 671 ft | 19 kts | 67° |
| 2026-04-27 13:40 | 55.59645 | 37.27500 | 674 ft | 13 kts | 68° |
| 2026-04-27 13:40 | 55.59678 | 37.27644 | 678 ft | 14 kts | 68° |
| 2026-04-27 13:40 | 55.59740 | 37.27769 | 678 ft | 13 kts | 24° |
| 2026-04-27 13:41 | 55.59836 | 37.27825 | 675 ft | 16 kts | 18° |
| 2026-04-27 13:41 | 55.59940 | 37.27896 | 678 ft | 11 kts | 39° |
| 2026-04-27 13:41 | 55.59965 | 37.27959 | 678 ft | 3 kts | 52° |
| 2026-04-27 13:41 | 55.59994 | 37.27990 | 678 ft | 8 kts | 19° |
| 2026-04-27 13:42 | 55.60019 | 37.28005 | 674 ft | 0 kts | 18° |
| 2026-04-27 13:43 | 55.60018 | 37.28005 | 674 ft | 0 kts | 18° |
| 2026-04-27 13:44 | 55.60018 | 37.28004 | 674 ft | 0 kts | 18° |